Latest Weather Observations for Gingin Airport

IDW60801

Issued at 2:53 pm WST Tuesday 16 August 2022 (issued every 10 minutes, with the page automatically refreshed every 10 minutes)

About weather observations | Map of weather stations | Latest weather observations for WA | Other Formats
Station Details ID: 009178 Name: GINGIN AERO Lat: -31.46 Lon: 115.86 Height: 73.0 m
Data from the previous 72 hours. | See also: Recent months at Gingin Airport
Date/Time
WST
Temp
°C
App
Temp
°C
Dew
Point
°C
Rel
Hum
%
Delta-T
°C
Wind Press
QNH
hPa
Press
MSL
hPa
Rain since
9am
mm
Dir  Spd
km/h
Gust
km/h
Spd
kts
Gust
kts
16/02:30pm 18.0 12.7 9.9 59 4.3 WNW 28 46 15 25 1006.9 1006.9 1.4
16/02:05pm 18.4 13.2 10.3 59 4.3 WNW 28 46 15 25 1006.7 1006.7 1.4
16/02:00pm 17.7 11.9 9.6 59 4.3 WNW 30 46 16 25 1006.7 1006.7 1.4
16/01:56pm 17.5 12.0 9.2 58 4.3 WNW 28 46 15 25 1006.9 1006.9 1.4
16/01:30pm 17.8 14.4 11.4 66 3.5 WNW 20 35 11 19 1006.7 1006.7 1.4
16/01:00pm 17.5 13.7 12.4 72 2.8 WNW 24 41 13 22 1006.6 1006.6 1.4
16/12:30pm 15.5 12.6 12.3 81 1.8 WNW 19 28 10 15 1007.2 1007.2 1.4
16/12:00pm 14.6 10.1 12.6 88 1.1 W 28 39 15 21 1007.2 1007.2 1.4
16/11:38am 14.1 9.3 12.8 92 0.7 W 30 56 16 30 1007.1 1007.1 1.4
16/11:33am 14.7 12.2 13.6 93 0.6 WNW 19 46 10 25 1007.2 1007.2 1.2
16/11:30am 15.8 15.0 15.0 95 0.5 WNW 13 19 7 10 1007.1 1007.1 1.2
16/11:00am 15.3 14.0 14.7 96 0.3 WNW 15 22 8 12 1007.2 1007.2 1.2
16/10:30am 15.0 13.6 14.4 96 0.3 W 15 20 8 11 1007.5 1007.5 0.8
16/10:00am 14.9 9.6 14.3 96 0.3 W 35 48 19 26 1007.0 1007.0 0.8
16/09:51am 15.4 11.6 14.8 96 0.3 W 28 48 15 26 1006.7 1006.7 0.6
16/09:30am 15.7 14.2 15.4 98 0.2 WNW 17 24 9 13 1006.5 1006.5 0.6
16/09:00am 16.1 15.2 15.9 99 0.1 NW 15 28 8 15 1006.4 1006.4 28.0
16/08:30am 16.4 16.8 16.2 99 0.1 NNW 9 13 5 7 1005.9 1005.9 27.2
16/08:00am 16.3 16.6 16.1 99 0.1 NW 9 13 5 7 1005.5 1005.5 27.2
16/07:30am 16.4 16.8 16.2 99 0.1 NW 9 13 5 7 1005.0 1005.0 27.0
16/07:00am 16.5 16.5 16.3 99 0.1 NW 11 15 6 8 1004.8 1004.7 26.8
16/06:30am 16.6 17.0 16.3 98 0.2 NW 9 13 5 7 1004.5 1004.4 26.2
16/06:00am 16.7 16.0 16.4 98 0.2 NW 15 22 8 12 1004.2 1004.1 25.8
16/05:30am 17.0 17.2 16.7 98 0.2 WNW 11 15 6 8 1004.0 1003.9 25.2
16/05:00am 17.2 17.5 16.9 98 0.2 NNW 11 15 6 8 1003.6 1003.5 25.0
16/04:30am 17.4 17.4 17.2 99 0.1 WNW 13 20 7 11 1003.9 1003.8 23.8
16/04:00am 17.7 17.1 17.5 99 0.1 WNW 17 22 9 12 1003.5 1003.4 21.0
16/03:30am 18.0 16.5 17.8 99 0.1 NW 22 37 12 20 1003.6 1003.5 19.2
16/03:00am 18.5 18.3 18.5 100 0.0 NW 17 26 9 14 1004.1 1004.0 18.0
16/02:30am 18.4 17.8 18.4 100 0.0 NNW 19 28 10 15 1003.6 1003.5 17.2
16/02:00am 18.3 17.6 18.3 100 0.0 NNW 19 30 10 16 1003.7 1003.6 16.6
16/01:30am 18.3 17.9 18.1 99 0.1 NNW 17 24 9 13 1003.5 1003.4 15.8
16/01:00am 18.2 17.8 18.0 99 0.1 N 17 24 9 13 1003.5 1003.4 15.2
16/12:30am 18.0 17.5 17.8 99 0.1 N 17 24 9 13 1003.6 1003.5 14.4
16/12:00am 18.1 17.1 17.9 99 0.1 NNE 20 28 11 15 1003.7 1003.6 13.6
 
Date/Time
WST
Temp
°C
App
Temp
°C
Dew
Point
°C
Rel
Hum
%
Delta-T
°C
Wind Press
QNH
hPa
Press
MSL
hPa
Rain since
9am
mm
Dir  Spd
km/h
Gust
km/h
Spd
kts
Gust
kts
15/11:30pm 18.1 17.0 17.8 98 0.2 N 20 28 11 15 1004.2 1004.1 12.6
15/11:00pm 18.1 16.9 17.6 97 0.3 N 20 28 11 15 1005.2 1005.2 11.8
15/10:30pm 18.1 17.0 17.3 95 0.5 N 19 28 10 15 1005.2 1005.2 11.0
15/10:00pm 18.1 16.7 17.0 93 0.7 N 20 28 11 15 1005.4 1005.4 10.2
15/09:30pm 17.7 16.8 16.9 95 0.5 NNE 17 26 9 14 1005.2 1005.2 9.2
15/09:00pm 17.0 16.2 16.2 95 0.5 NNE 15 19 8 10 1005.6 1005.6 8.0
15/08:30pm 16.8 16.0 16.0 95 0.5 NNE 15 20 8 11 1006.6 1006.6 6.8
15/08:00pm 16.7 14.8 15.7 94 0.6 NNE 20 28 11 15 1006.9 1006.9 5.2
15/07:30pm 16.9 16.9 15.2 90 1.0 N 9 15 5 8 1007.4 1007.4 3.4
15/07:00pm 17.0 17.0 15.2 89 1.1 NE 9 13 5 7 1006.5 1006.5 2.8
15/06:30pm 17.3 16.9 15.1 87 1.3 NNE 11 15 6 8 1006.8 1006.8 2.4
15/06:00pm 17.8 17.2 14.7 82 1.8 N 11 17 6 9 1007.3 1007.3 1.4
15/05:30pm 19.2 17.6 12.9 67 3.6 NNE 13 17 7 9 1007.0 1007.0 0.2
15/05:00pm 20.9 19.1 11.0 53 5.5 NNE 11 15 6 8 1007.1 1007.1 0.0
15/04:30pm 22.4 19.6 9.9 45 6.8 NNE 15 20 8 11 1007.1 1007.1 0.0
15/04:00pm 23.0 19.4 9.8 43 7.2 N 19 28 10 15 1007.6 1007.6 0.0
15/03:30pm 23.3 20.7 10.7 45 7.0 NNW 15 20 8 11 1007.9 1007.9 0.0
15/03:00pm 23.0 19.6 10.4 45 7.0 N 19 28 10 15 1008.6 1008.6 0.0
15/02:30pm 22.9 19.3 10.0 44 7.1 NNW 19 26 10 14 1009.0 1009.0 0.0
15/02:00pm 22.9 18.7 9.7 43 7.2 NNW 22 33 12 18 1009.3 1009.3 0.0
15/01:30pm 23.1 19.2 9.5 42 7.4 NNW 20 32 11 17 1009.8 1009.8 0.0
15/01:00pm 22.4 18.2 9.6 44 6.9 NNW 22 32 12 17 1010.2 1010.2 0.0
15/12:30pm 22.2 17.0 9.0 43 7.1 N 26 33 14 18 1010.5 1010.5 0.0
15/12:00pm 21.5 16.1 9.4 46 6.5 N 28 39 15 21 1011.1 1011.1 0.0
15/11:30am 20.3 15.7 9.8 51 5.6 N 24 33 13 18 1011.8 1011.8 0.0
15/11:00am 19.1 14.4 9.3 53 5.2 NNE 24 32 13 17 1012.3 1012.3 0.0
15/10:30am 17.7 12.1 8.6 55 4.7 NNE 28 33 15 18 1012.7 1012.7 0.0
15/10:00am 17.2 12.8 8.9 58 4.3 NNE 22 30 12 16 1013.1 1013.1 0.0
15/09:30am 15.9 11.8 7.9 59 4.0 NNE 19 26 10 14 1013.6 1013.6 0.0
15/09:00am 14.7 10.9 7.5 62 3.6 NE 17 20 9 11 1014.0 1014.0 0.0
15/08:30am 13.2 9.2 6.8 65 3.1 NNE 17 20 9 11 1014.5 1014.5 0.0
15/08:00am 11.9 8.3 6.6 70 2.5 NNE 15 22 8 12 1014.6 1014.6 0.0
15/07:30am 10.4 7.4 6.2 75 2.0 N 11 15 6 8 1015.0 1015.0 0.0
15/07:00am 10.3 7.3 6.1 75 2.0 NNE 11 15 6 8 1014.9 1014.9 0.0
15/06:30am 10.3 7.3 5.9 74 2.0 NE 11 15 6 8 1014.8 1014.8 0.0
15/06:00am 10.9 7.2 6.1 72 2.2 NE 15 22 8 12 1014.6 1014.6 0.0
15/05:30am 11.2 7.1 6.1 71 2.4 NE 17 22 9 12 1014.5 1014.5 0.0
15/05:00am 11.1 7.0 6.3 72 2.3 NE 17 20 9 11 1014.6 1014.6 0.0
15/04:30am 11.2 7.5 6.3 72 2.3 NE 15 19 8 10 1014.9 1014.9 0.0
15/04:00am 11.6 7.6 6.5 71 2.4 NE 17 24 9 13 1015.0 1015.0 0.0
15/03:30am 11.4 7.4 6.7 73 2.2 ENE 17 20 9 11 1015.2 1015.2 0.0
15/03:00am 11.6 7.6 6.7 72 2.3 ENE 17 22 9 12 1015.5 1015.5 0.0
15/02:30am 11.5 7.5 6.8 73 2.2 ENE 17 24 9 13 1015.8 1015.8 0.0
15/02:00am 12.2 8.0 7.3 72 2.4 ENE 19 26 10 14 1016.1 1016.1 0.0
15/01:30am 12.3 8.9 7.8 74 2.2 ENE 15 19 8 10 1017.0 1017.1 0.0
15/01:00am 10.7 7.3 7.8 82 1.4 ENE 15 17 8 9 1017.0 1017.1 0.0
15/12:30am 10.2 6.7 7.4 83 1.3 ENE 15 15 8 8 1017.3 1017.3 0.0
15/12:00am 9.9 7.1 7.0 82 1.4 NE 11 11 6 6 1017.6 1017.6 0.0
 
Date/Time
WST
Temp
°C
App
Temp
°C
Dew
Point
°C
Rel
Hum
%
Delta-T
°C
Wind Press
QNH
hPa
Press
MSL
hPa
Rain since
9am
mm
Dir  Spd
km/h
Gust
km/h
Spd
kts
Gust
kts
14/11:30pm 10.5 7.0 7.4 81 1.5 ENE 15 15 8 8 1017.7 1017.7 0.0
14/11:00pm 10.5 7.9 7.6 82 1.4 ENE 11 13 6 7 1017.9 1017.9 0.0
14/10:30pm 11.6 9.1 8.3 80 1.6 ENE 11 13 6 7 1018.2 1018.2 0.0
14/10:00pm 11.5 8.7 8.4 81 1.5 ENE 13 17 7 9 1018.4 1018.4 0.0
14/09:30pm 11.2 8.3 8.1 81 1.5 NE 13 15 7 8 1018.4 1018.4 0.0
14/09:00pm 11.6 9.1 8.1 79 1.7 NE 11 13 6 7 1018.3 1018.3 0.0
14/08:30pm 12.4 9.6 8.5 77 1.9 NE 13 15 7 8 1018.2 1018.2 0.0
14/08:00pm 13.5 10.8 9.0 74 2.3 NE 13 13 7 7 1018.1 1018.1 0.0
14/07:30pm 14.3 11.7 9.5 73 2.5 NE 13 15 7 8 1018.1 1018.1 0.0
14/07:00pm 14.6 12.5 9.6 72 2.6 NE 11 13 6 7 1018.0 1018.0 0.0
14/06:30pm 15.2 13.4 9.6 69 2.9 NE 9 9 5 5 1017.8 1017.8 0.0
14/06:00pm 16.0 14.3 9.7 66 3.3 NE 9 9 5 5 1017.7 1017.7 0.0
14/05:30pm 17.0 15.3 9.7 62 3.8 NE 9 11 5 6 1017.7 1017.7 0.0
14/05:00pm 17.7 15.7 8.8 56 4.6 NNE 9 13 5 7 1017.6 1017.6 0.0
14/04:30pm 18.1 15.6 8.4 53 5.0 NE 11 15 6 8 1017.5 1017.5 0.0
14/04:00pm 18.2 15.8 8.5 53 5.0 NNE 11 15 6 8 1017.5 1017.5 0.0
14/03:30pm 18.2 15.8 8.5 53 5.0 NE 11 17 6 9 1017.4 1017.4 0.0
14/03:00pm 18.5 16.1 8.7 53 5.1 NE 11 15 6 8 1017.6 1017.6 0.0
14/02:30pm 18.5 16.1 8.7 53 5.1 NNE 11 19 6 10 1017.7 1017.7 0.0
14/02:00pm 19.0 16.3 7.4 47 5.9 N 11 20 6 11 1017.8 1017.8 0.0
14/01:30pm 18.3 14.6 8.0 51 5.3 NE 17 24 9 13 1017.9 1017.9 0.0
14/01:00pm 17.8 14.5 8.1 53 5.0 NE 15 20 8 11 1018.3 1018.3 0.0
14/12:30pm 17.1 14.4 7.5 53 4.8 NE 11 17 6 9 1018.7 1018.7 0.0
14/12:00pm 17.6 15.0 7.9 53 4.9 ENE 11 19 6 10 1018.9 1018.9 0.0
14/11:30am 17.1 14.9 7.7 54 4.8 ENE 9 15 5 8 1019.1 1019.1 0.0
14/11:00am 16.6 14.7 9.1 61 3.9 NNE 9 15 5 8 1019.4 1019.4 0.0
14/10:30am 15.5 14.1 10.9 74 2.5 NNE 9 11 5 6 1019.6 1019.6 0.0
14/10:00am 14.1 13.0 12.0 87 1.1 NE 9 11 5 6 1019.7 1019.7 0.0
14/09:30am 12.3 11.4 11.4 94 0.5 ENE 7 11 4 6 1019.5 1019.5 0.0
14/09:00am 10.5 8.8 9.7 95 0.4 NNE 9 11 5 6 1019.5 1019.5 10.6
14/08:30am 9.8 7.9 9.2 96 0.3 N 9 13 5 7 1019.3 1019.3 10.6
14/08:00am 8.4 6.6 7.8 96 0.3 N 7 9 4 5 1018.8 1018.8 10.6
14/07:30am 6.7 5.4 6.0 95 0.3 N 2 7 1 4 1018.5 1018.5 10.6
14/07:00am 6.0 3.8 5.3 95 0.3 NNE 6 7 3 4 1018.0 1018.0 10.6
14/06:30am 4.2 1.4 3.2 93 0.4 N 7 7 4 4 1017.6 1017.6 10.6
14/06:00am 4.9 2.2 3.9 93 0.4 N 7 9 4 5 1016.8 1016.9 10.6
14/05:30am 4.2 1.4 3.2 93 0.4 NW 7 9 4 5 1016.4 1016.5 10.6
14/05:00am 4.7 2.5 3.5 92 0.5 NW 4 6 2 3 1015.8 1015.8 10.6
14/04:30am 5.7 3.3 4.5 92 0.5 NW 6 7 3 4 1015.5 1015.5 10.6
14/04:00am 5.5 3.1 4.3 92 0.5 NW 6 7 3 4 1015.7 1015.7 10.6
14/03:30am 4.9 3.5 3.6 91 0.5 CALM 0 0 0 0 1015.5 1015.5 10.6
14/03:00am 5.7 4.4 4.3 91 0.6 CALM 0 0 0 0 1015.5 1015.5 10.6
14/02:30am 6.2 3.7 4.7 90 0.7 NW 7 7 4 4 1015.3 1015.3 10.6
14/02:00am 7.7 5.5 6.2 90 0.7 NW 7 9 4 5 1015.2 1015.2 10.6
14/01:30am 8.1 5.6 6.4 89 0.8 WNW 9 9 5 5 1015.0 1015.0 10.6
14/01:00am 9.1 7.1 7.2 88 0.9 W 7 9 4 5 1014.9 1014.9 10.6
14/12:30am 10.4 8.4 8.5 88 0.9 W 9 11 5 6 1014.9 1014.9 10.6
14/12:00am 10.6 7.8 8.4 86 1.1 WSW 13 15 7 8 1014.8 1014.8 10.6
 
Date/Time
WST
Temp
°C
App
Temp
°C
Dew
Point
°C
Rel
Hum
%
Delta-T
°C
Wind Press
QNH
hPa
Press
MSL
hPa
Rain since
9am
mm
Dir  Spd
km/h
Gust
km/h
Spd
kts
Gust
kts
13/11:30pm 11.2 9.3 8.9 86 1.1 W 9 11 5 6 1014.8 1014.8 10.6
13/11:00pm 12.1 9.9 9.5 84 1.3 W 11 13 6 7 1014.8 1014.8 10.6
13/10:30pm 12.6 9.7 9.6 82 1.5 WSW 15 19 8 10 1014.2 1014.2 10.6
13/10:00pm 12.7 9.2 10.1 84 1.3 WSW 19 24 10 13 1013.7 1013.7 10.6
13/09:30pm 13.1 9.7 10.5 84 1.4 W 19 24 10 13 1013.2 1013.2 10.6
13/09:00pm 13.4 9.8 10.6 83 1.5 W 20 37 11 20 1012.9 1012.9 10.4
13/08:30pm 13.4 11.0 11.5 88 1.0 WNW 15 22 8 12 1012.5 1012.5 10.4
13/08:00pm 12.9 11.2 11.3 90 0.8 NW 11 15 6 8 1011.8 1011.8 10.4
13/07:30pm 13.5 10.7 11.4 87 1.1 NW 17 26 9 14 1011.3 1011.3 10.0
13/07:00pm 13.5 10.3 11.2 86 1.2 NW 19 24 10 13 1010.7 1010.7 9.8
13/06:30pm 13.7 10.9 11.4 86 1.2 W 17 24 9 13 1010.3 1010.3 9.2
13/06:00pm 13.3 11.2 11.2 87 1.1 NW 13 19 7 10 1009.6 1009.6 8.8
13/05:30pm 13.6 11.2 11.3 86 1.2 NW 15 22 8 12 1009.2 1009.2 8.8
13/05:00pm 13.9 8.4 10.5 80 1.8 WNW 30 52 16 28 1009.3 1009.3 8.4
13/04:43pm 15.0 9.8 10.4 74 2.4 NW 28 57 15 31 1008.8 1008.8 7.8
13/04:30pm 16.5 12.5 10.4 67 3.2 WNW 22 32 12 17 1008.2 1008.2 7.6
13/04:12pm 16.8 11.8 11.1 69 3.1 WNW 28 52 15 28 1008.2 1008.2 7.6
13/04:00pm 16.5 13.6 13.0 80 2.0 WNW 20 30 11 16 1007.9 1007.9 7.6
13/03:30pm 15.8 14.1 14.7 93 0.6 NW 17 28 9 15 1007.4 1007.4 7.6
13/03:00pm 15.6 13.7 15.1 97 0.3 N 19 30 10 16 1007.3 1007.3 7.6

Other formats

Comma delimited format used in spreadsheet applications
http://www.bom.gov.au/fwo/IDW60801/IDW60801.95612.axf

JavaScript Object Notation format (JSON) in row-major order
http://www.bom.gov.au/fwo/IDW60801/IDW60801.95612.json

Data quality

Most of these data are generated automatically and are frequently updated. Quality checks on data are not normally performed. It is possible for incorrect values to appear. Refer to information at About Latest Weather Observations and please check the disclaimer before using these data.